createdAt,value
2018-06-06T00:01:58.462Z,21.20
2018-06-06T00:04:26.028Z,21.20
2018-06-06T00:06:53.655Z,21.10
2018-06-06T00:09:21.223Z,21.20
2018-06-06T00:11:48.772Z,21.10
2018-06-06T00:14:16.369Z,21.10
2018-06-06T00:16:43.922Z,21.00
2018-06-06T00:19:11.454Z,21.00
2018-06-06T00:21:39.085Z,20.90
2018-06-06T00:24:06.644Z,20.90
2018-06-06T00:29:01.726Z,20.90
2018-06-06T00:31:29.300Z,20.90
2018-06-06T00:33:56.869Z,20.90
2018-06-06T00:36:24.457Z,20.90
2018-06-06T00:38:52.022Z,20.80
2018-06-06T00:41:19.590Z,20.80
2018-06-06T00:43:47.208Z,20.80
2018-06-06T00:46:14.785Z,20.80
2018-06-06T00:48:42.326Z,20.70
2018-06-06T00:51:09.894Z,20.60
2018-06-06T00:53:37.418Z,20.60
2018-06-06T00:56:04.960Z,20.60
2018-06-06T00:58:32.537Z,20.60
2018-06-06T01:01:00.100Z,20.50
2018-06-06T01:03:27.633Z,20.50
2018-06-06T01:05:55.192Z,20.50
2018-06-06T01:08:22.788Z,20.50
2018-06-06T01:10:50.322Z,20.40
2018-06-06T01:13:17.912Z,20.40
2018-06-06T01:15:45.530Z,20.40
2018-06-06T01:18:13.116Z,20.40
2018-06-06T01:20:40.662Z,20.30
2018-06-06T01:23:08.228Z,20.20
2018-06-06T01:25:35.767Z,20.30
2018-06-06T01:28:03.405Z,20.20
2018-06-06T01:30:30.985Z,20.20
2018-06-06T01:32:58.958Z,20.10
2018-06-06T01:35:26.509Z,20.10
2018-06-06T01:37:54.087Z,20.10
2018-06-06T01:40:21.629Z,20.10
2018-06-06T01:42:49.206Z,20.10
2018-06-06T01:45:16.761Z,20.00
2018-06-06T01:47:44.349Z,20.00
2018-06-06T01:50:11.931Z,20.00
2018-06-06T01:55:06.940Z,19.90
2018-06-06T01:57:34.513Z,19.90
2018-06-06T02:04:56.983Z,19.90
2018-06-06T02:07:24.517Z,19.90
2018-06-06T02:09:52.064Z,19.80
2018-06-06T02:12:19.663Z,19.80
2018-06-06T02:17:14.666Z,19.90
2018-06-06T02:19:42.207Z,19.90
2018-06-06T02:22:09.790Z,19.80
2018-06-06T02:24:37.357Z,19.90
2018-06-06T02:27:04.936Z,19.90
2018-06-06T02:29:32.535Z,19.90
2018-06-06T02:32:00.106Z,19.90
2018-06-06T02:34:27.662Z,19.90
2018-06-06T02:36:55.220Z,19.90
2018-06-06T02:39:22.752Z,19.90
2018-06-06T02:41:50.318Z,19.90
2018-06-06T02:44:17.881Z,19.90
2018-06-06T02:46:45.448Z,19.80
2018-06-06T02:49:12.948Z,19.80
2018-06-06T02:51:40.748Z,19.80
2018-06-06T02:54:08.349Z,19.70
2018-06-06T02:56:35.927Z,19.70
2018-06-06T02:59:03.510Z,19.70
2018-06-06T03:01:31.046Z,19.60
2018-06-06T03:03:58.706Z,19.60
2018-06-06T03:06:26.263Z,19.60
2018-06-06T03:08:53.792Z,19.50
2018-06-06T03:11:21.362Z,19.50
2018-06-06T03:13:48.909Z,19.50
2018-06-06T03:16:16.501Z,19.50
2018-06-06T03:18:44.068Z,19.40
2018-06-06T03:21:11.615Z,19.40
2018-06-06T03:23:39.169Z,19.30
2018-06-06T03:26:06.671Z,19.30
2018-06-06T03:28:34.217Z,19.30
2018-06-06T03:31:01.801Z,19.30
2018-06-06T03:33:29.392Z,19.30
2018-06-06T03:35:56.987Z,19.30
2018-06-06T03:38:24.595Z,19.30
2018-06-06T03:40:52.133Z,19.30
2018-06-06T03:43:19.669Z,19.30
2018-06-06T03:45:47.225Z,19.30
2018-06-06T03:48:14.729Z,19.20
2018-06-06T03:50:42.499Z,19.20
2018-06-06T03:53:10.065Z,19.30
2018-06-06T03:55:37.611Z,19.30
2018-06-06T03:58:05.224Z,19.30
2018-06-06T04:00:32.787Z,19.30
2018-06-06T04:03:00.391Z,19.40
2018-06-06T04:05:27.953Z,19.40
2018-06-06T04:07:55.555Z,19.40
2018-06-06T04:10:23.090Z,19.50
2018-06-06T04:12:50.612Z,19.40
2018-06-06T04:15:18.232Z,19.40
2018-06-06T04:17:45.793Z,19.50
2018-06-06T04:20:13.353Z,19.40
2018-06-06T04:22:40.973Z,19.50
2018-06-06T04:25:08.497Z,19.60
2018-06-06T04:27:36.051Z,19.60
2018-06-06T04:30:04.207Z,19.70
2018-06-06T04:34:59.318Z,19.70
2018-06-06T04:37:26.931Z,19.80
2018-06-06T04:39:54.584Z,19.80
2018-06-06T04:42:22.124Z,19.90
2018-06-06T04:44:49.681Z,19.90
2018-06-06T04:47:17.226Z,19.90
2018-06-06T04:49:44.776Z,20.00
2018-06-06T04:52:12.387Z,20.10
2018-06-06T04:54:39.961Z,20.10
2018-06-06T04:57:07.498Z,20.20
2018-06-06T04:59:35.096Z,20.20
2018-06-06T05:02:02.680Z,20.20
2018-06-06T05:04:30.199Z,20.20
2018-06-06T05:06:57.778Z,20.30
2018-06-06T05:09:25.321Z,20.40
2018-06-06T05:11:52.894Z,20.50
2018-06-06T05:14:20.480Z,20.60
2018-06-06T05:16:48.047Z,20.60
2018-06-06T05:19:15.697Z,20.70
2018-06-06T05:21:43.322Z,20.70
2018-06-06T05:24:10.875Z,20.80
2018-06-06T05:26:38.468Z,20.80
2018-06-06T05:29:06.052Z,20.90
2018-06-06T05:31:33.627Z,21.00
2018-06-06T05:34:01.155Z,21.00
2018-06-06T05:36:28.714Z,21.00
2018-06-06T05:38:56.306Z,21.10
2018-06-06T05:41:23.875Z,21.10
2018-06-06T05:43:51.448Z,21.20
2018-06-06T05:46:19.046Z,21.20
2018-06-06T05:48:46.614Z,21.40
2018-06-06T05:51:14.224Z,21.40
2018-06-06T05:53:41.752Z,21.40
2018-06-06T05:56:09.276Z,21.50
2018-06-06T05:58:36.818Z,21.50
2018-06-06T06:01:04.378Z,21.60
2018-06-06T06:03:31.927Z,21.70
2018-06-06T06:05:59.516Z,21.80
2018-06-06T06:08:27.076Z,21.90
2018-06-06T06:10:54.640Z,22.00
2018-06-06T06:13:22.203Z,22.00
2018-06-06T06:15:49.902Z,22.10
2018-06-06T06:18:17.419Z,22.10
2018-06-06T06:20:45.029Z,22.20
2018-06-06T06:23:13.433Z,22.30
2018-06-06T06:25:41.007Z,22.40
2018-06-06T06:28:08.633Z,22.50
2018-06-06T06:30:36.233Z,22.50
2018-06-06T06:33:03.853Z,22.60
2018-06-06T06:35:31.399Z,22.70
2018-06-06T06:37:59.008Z,22.70
2018-06-06T06:40:26.633Z,22.70
2018-06-06T06:42:54.332Z,22.80
2018-06-06T06:45:21.871Z,22.80
2018-06-06T06:47:49.456Z,22.90
2018-06-06T06:50:17.204Z,23.00
2018-06-06T06:52:44.816Z,23.10
2018-06-06T06:55:12.419Z,23.20
2018-06-06T06:57:40.003Z,23.10
2018-06-06T07:00:07.684Z,23.20
2018-06-06T07:05:02.980Z,23.30
2018-06-06T07:07:30.575Z,23.40
2018-06-06T07:09:58.177Z,23.50
2018-06-06T07:12:25.897Z,23.50
2018-06-06T07:14:53.522Z,23.60
2018-06-06T07:17:21.071Z,23.70
2018-06-06T07:19:48.654Z,23.80
2018-06-06T07:22:16.294Z,23.80
2018-06-06T07:24:43.909Z,23.90
2018-06-06T07:27:11.516Z,24.00
2018-06-06T07:29:39.093Z,24.00
2018-06-06T07:32:06.657Z,24.10
2018-06-06T07:37:01.852Z,24.10
2018-06-06T07:39:29.476Z,24.20
2018-06-06T07:41:57.102Z,24.30
2018-06-06T07:44:24.728Z,24.40
2018-06-06T07:46:52.342Z,24.40
2018-06-06T07:49:19.948Z,24.50
2018-06-06T07:51:47.525Z,24.60
2018-06-06T07:54:15.114Z,24.60
2018-06-06T07:56:42.698Z,24.70
2018-06-06T07:59:10.364Z,24.70
2018-06-06T08:01:37.939Z,24.80
2018-06-06T08:04:05.706Z,24.90
2018-06-06T08:06:33.332Z,25.00
2018-06-06T08:09:00.941Z,25.10
2018-06-06T08:11:28.524Z,25.10
2018-06-06T08:13:56.139Z,25.10
2018-06-06T08:16:23.687Z,25.10
2018-06-06T08:18:51.260Z,25.20
2018-06-06T08:21:18.846Z,25.30
2018-06-06T08:23:46.453Z,25.40
2018-06-06T08:26:14.028Z,25.50
2018-06-06T08:28:41.598Z,25.70
2018-06-06T08:31:09.156Z,25.70
2018-06-06T08:33:36.709Z,25.80
2018-06-06T08:36:04.381Z,25.90
2018-06-06T08:38:31.892Z,25.90
2018-06-06T08:40:59.496Z,26.00
2018-06-06T08:43:27.063Z,26.20
2018-06-06T08:45:54.707Z,26.20
2018-06-06T08:48:22.319Z,26.20
2018-06-06T08:50:49.949Z,26.20
2018-06-06T08:53:17.577Z,26.40
2018-06-06T08:55:45.152Z,26.50
2018-06-06T08:58:12.702Z,26.50
2018-06-06T09:00:40.289Z,26.60
2018-06-06T09:03:07.863Z,26.80
2018-06-06T09:05:35.392Z,26.90
2018-06-06T09:08:02.949Z,27.00
2018-06-06T09:10:30.477Z,27.20
2018-06-06T09:12:58.075Z,27.30
2018-06-06T09:15:25.665Z,27.40
2018-06-06T09:17:53.262Z,27.40
2018-06-06T09:22:48.337Z,27.50
2018-06-06T09:25:15.926Z,27.70
2018-06-06T09:27:43.536Z,27.80
2018-06-06T09:30:11.106Z,27.90
2018-06-06T09:32:38.809Z,28.00
2018-06-06T09:35:06.896Z,28.10
2018-06-06T09:37:34.419Z,28.20
2018-06-06T09:40:02.040Z,28.30
2018-06-06T09:42:29.650Z,28.30
2018-06-06T09:44:57.219Z,28.30
2018-06-06T09:47:24.824Z,28.40
2018-06-06T09:49:52.424Z,28.50
2018-06-06T09:52:20.054Z,28.70
2018-06-06T09:54:47.623Z,28.80
2018-06-06T09:57:15.246Z,29.00
2018-06-06T09:59:42.860Z,29.20
2018-06-06T10:02:10.487Z,29.30
2018-06-06T10:04:38.050Z,29.40
2018-06-06T10:07:05.627Z,29.50
2018-06-06T10:09:33.235Z,29.70
2018-06-06T10:12:00.788Z,29.80
2018-06-06T10:14:28.398Z,29.80
2018-06-06T10:16:55.968Z,30.00
2018-06-06T10:19:23.482Z,30.00
2018-06-06T10:21:51.085Z,30.00
2018-06-06T10:24:18.728Z,30.10
2018-06-06T10:26:46.319Z,30.30
2018-06-06T10:29:13.941Z,30.40
2018-06-06T10:31:41.524Z,30.50
2018-06-06T10:34:09.161Z,30.70
2018-06-06T10:36:36.786Z,30.80
2018-06-06T10:39:05.856Z,30.90
2018-06-06T10:41:33.457Z,31.00
2018-06-06T10:44:01.044Z,31.10
2018-06-06T10:46:28.644Z,31.20
2018-06-06T10:48:56.226Z,31.30
2018-06-06T10:51:23.797Z,31.40
2018-06-06T10:53:51.412Z,31.50
2018-06-06T10:56:19.080Z,31.70
2018-06-06T10:58:46.675Z,31.90
2018-06-06T11:01:14.304Z,32.00
2018-06-06T11:03:41.898Z,32.10
2018-06-06T11:06:09.507Z,32.20
2018-06-06T11:08:37.126Z,32.30
2018-06-06T11:11:04.744Z,32.50
2018-06-06T11:13:32.357Z,32.70
2018-06-06T11:16:00.002Z,33.00
2018-06-06T11:18:27.611Z,33.10
2018-06-06T11:20:55.238Z,33.40
2018-06-06T11:23:22.911Z,33.70
2018-06-06T11:25:50.551Z,33.90
2018-06-06T11:28:18.132Z,34.20
2018-06-06T11:30:45.777Z,34.60
2018-06-06T11:33:13.348Z,35.10
2018-06-06T11:35:40.945Z,36.00
2018-06-06T11:38:08.575Z,37.90
2018-06-06T11:40:36.166Z,40.10
2018-06-06T11:43:03.803Z,42.60
2018-06-06T11:45:31.422Z,45.10
2018-06-06T11:47:59.108Z,46.50
2018-06-06T11:50:26.827Z,47.70
2018-06-06T11:52:54.426Z,48.80
2018-06-06T11:55:22.060Z,50.00
2018-06-06T11:57:49.602Z,51.30
2018-06-06T12:00:17.253Z,52.50
2018-06-06T12:02:44.869Z,53.90
2018-06-06T12:05:12.450Z,54.50
2018-06-06T12:07:40.046Z,54.60
2018-06-06T12:10:07.648Z,54.80
2018-06-06T12:12:35.529Z,54.30
2018-06-06T12:15:03.184Z,53.60
2018-06-06T12:17:30.784Z,53.30
2018-06-06T12:19:58.346Z,53.70
2018-06-06T12:22:26.004Z,54.10
2018-06-06T12:24:53.627Z,54.70
2018-06-06T12:27:21.192Z,55.10
2018-06-06T12:29:48.821Z,55.60
2018-06-06T12:32:16.367Z,56.00
2018-06-06T12:34:43.931Z,56.40
2018-06-06T12:37:11.524Z,56.10
2018-06-06T12:39:39.126Z,55.80
2018-06-06T12:42:06.725Z,55.60
2018-06-06T12:44:34.354Z,55.60
2018-06-06T12:47:01.971Z,55.40
2018-06-06T12:49:29.623Z,55.40
2018-06-06T12:51:57.306Z,55.30
2018-06-06T12:54:24.918Z,55.10
2018-06-06T12:56:52.572Z,54.30
2018-06-06T12:59:20.185Z,53.50
2018-06-06T13:01:47.836Z,53.00
2018-06-06T13:04:15.447Z,52.50
2018-06-06T13:06:43.028Z,52.30
2018-06-06T13:09:10.614Z,51.90
2018-06-06T13:11:38.245Z,51.00
2018-06-06T13:14:05.925Z,49.80
2018-06-06T13:16:33.572Z,48.50
2018-06-06T13:21:28.786Z,45.90
2018-06-06T13:23:56.339Z,45.80
2018-06-06T13:28:51.421Z,46.00
2018-06-06T13:31:19.034Z,46.20
2018-06-06T13:33:46.656Z,47.30
2018-06-06T13:36:14.277Z,49.00
2018-06-06T13:38:41.915Z,50.70
2018-06-06T13:43:37.079Z,53.10
2018-06-06T13:46:05.078Z,53.70
2018-06-06T13:48:32.669Z,52.70
2018-06-06T13:51:00.340Z,51.80
2018-06-06T13:53:34.637Z,51.60
2018-06-06T13:58:29.738Z,50.30
2018-06-06T14:00:57.315Z,48.90
2018-06-06T14:03:24.930Z,47.20
2018-06-06T14:05:52.551Z,45.30
2018-06-06T14:10:47.690Z,42.90
2018-06-06T14:13:15.266Z,42.30
2018-06-06T14:15:42.915Z,42.00
2018-06-06T14:18:10.559Z,41.90
2018-06-06T14:20:38.202Z,42.30
2018-06-06T14:23:06.052Z,43.00
2018-06-06T14:25:33.756Z,44.20
2018-06-06T14:28:01.467Z,45.60
2018-06-06T14:30:29.055Z,47.20
2018-06-06T14:32:56.677Z,48.50
2018-06-06T14:35:24.293Z,49.10
2018-06-06T14:37:51.852Z,48.80
2018-06-06T14:40:19.401Z,47.70
2018-06-06T14:42:47.027Z,46.00
2018-06-06T14:45:14.618Z,45.10
2018-06-06T14:47:42.159Z,45.90
2018-06-06T14:50:09.813Z,47.20
2018-06-06T14:52:37.437Z,48.30
2018-06-06T14:55:05.128Z,48.80
2018-06-06T14:57:32.815Z,48.80
2018-06-06T15:00:00.435Z,48.80
2018-06-06T15:02:27.997Z,48.80
2018-06-06T15:04:55.606Z,48.20
2018-06-06T15:07:23.186Z,46.90
2018-06-06T15:09:50.774Z,45.30
2018-06-06T15:12:18.370Z,44.60
2018-06-06T15:14:45.944Z,45.10
2018-06-06T15:17:13.563Z,45.80
2018-06-06T15:19:41.220Z,46.30
2018-06-06T15:22:08.822Z,46.40
2018-06-06T15:24:36.451Z,46.40
2018-06-06T15:27:04.105Z,46.50
2018-06-06T15:29:31.678Z,46.40
2018-06-06T15:31:59.295Z,45.80
2018-06-06T15:34:26.925Z,44.80
2018-06-06T15:36:54.464Z,43.20
2018-06-06T15:39:22.076Z,42.60
2018-06-06T15:41:49.707Z,42.90
2018-06-06T15:44:17.276Z,43.20
2018-06-06T15:46:44.820Z,43.60
2018-06-06T15:51:40.005Z,43.40
2018-06-06T15:54:07.615Z,42.80
2018-06-06T15:59:09.348Z,40.50
2018-06-06T16:01:36.943Z,39.30
2018-06-06T16:04:04.620Z,38.40
2018-06-06T16:06:32.219Z,37.80
2018-06-06T16:08:59.806Z,37.80
2018-06-06T16:11:27.387Z,37.60
2018-06-06T16:13:54.973Z,37.30
2018-06-06T16:16:22.642Z,37.00
2018-06-06T16:18:50.314Z,36.80
2018-06-06T16:21:17.932Z,36.40
2018-06-06T16:23:45.493Z,36.10
2018-06-06T16:26:13.095Z,35.90
2018-06-06T16:28:40.732Z,35.60
2018-06-06T16:31:08.360Z,35.30
2018-06-06T16:33:36.016Z,35.00
2018-06-06T16:36:03.684Z,34.70
2018-06-06T16:38:31.291Z,34.30
2018-06-06T16:40:58.915Z,33.90
2018-06-06T16:43:26.521Z,33.60
2018-06-06T16:45:54.160Z,33.20
2018-06-06T16:48:21.744Z,32.80
2018-06-06T16:50:49.386Z,32.40
2018-06-06T16:53:16.960Z,32.20
2018-06-06T16:55:44.590Z,31.90
2018-06-06T16:58:12.344Z,31.80
2018-06-06T17:00:39.942Z,31.80
2018-06-06T17:03:07.539Z,31.70
2018-06-06T17:05:35.194Z,31.60
2018-06-06T17:08:02.901Z,31.50
2018-06-06T17:10:30.540Z,31.50
2018-06-06T17:12:58.182Z,31.30
2018-06-06T17:15:25.818Z,31.10
2018-06-06T17:17:53.394Z,31.10
2018-06-06T17:20:21.004Z,31.00
2018-06-06T17:22:48.656Z,30.90
2018-06-06T17:25:16.268Z,30.90
2018-06-06T17:27:43.932Z,30.80
2018-06-06T17:30:11.580Z,30.70
2018-06-06T17:32:39.237Z,30.60
2018-06-06T17:35:06.902Z,30.40
2018-06-06T17:37:34.557Z,30.20
2018-06-06T17:40:02.239Z,30.00
2018-06-06T17:42:29.903Z,29.80
2018-06-06T17:44:57.853Z,29.70
2018-06-06T17:47:32.061Z,29.60
2018-06-06T17:49:59.692Z,29.60
2018-06-06T17:52:27.352Z,29.40
2018-06-06T17:54:55.053Z,29.20
2018-06-06T17:57:22.727Z,29.10
2018-06-06T17:59:50.360Z,29.10
2018-06-06T18:02:18.053Z,29.10
2018-06-06T18:04:45.692Z,29.10
2018-06-06T18:07:13.311Z,29.00
2018-06-06T18:09:41.234Z,28.90
2018-06-06T18:12:08.903Z,28.90
2018-06-06T18:14:36.584Z,28.80
2018-06-06T18:17:04.229Z,28.70
2018-06-06T18:19:31.865Z,28.60
2018-06-06T18:21:59.582Z,28.30
2018-06-06T18:24:27.331Z,28.00
2018-06-06T18:26:55.080Z,27.80
2018-06-06T18:29:22.665Z,27.50
2018-06-06T18:31:50.351Z,27.20
2018-06-06T18:34:18.186Z,26.90
2018-06-06T18:36:45.836Z,26.80
2018-06-06T18:39:13.492Z,26.60
2018-06-06T18:41:41.284Z,26.40
2018-06-06T18:46:36.481Z,26.00
2018-06-06T18:49:04.174Z,25.90
2018-06-06T18:51:31.826Z,25.70
2018-06-06T18:53:59.552Z,25.70
2018-06-06T18:56:27.271Z,25.50
2018-06-06T18:58:55.024Z,25.40
2018-06-06T19:01:22.643Z,25.20
2018-06-06T19:03:50.308Z,25.30
2018-06-06T19:06:17.988Z,25.20
2018-06-06T19:08:45.584Z,25.10
2018-06-06T19:11:13.274Z,25.00
2018-06-06T19:13:41.001Z,25.00
2018-06-06T19:16:08.695Z,24.90
2018-06-06T19:18:36.409Z,24.90
2018-06-06T19:21:04.101Z,24.80
2018-06-06T19:23:31.705Z,24.70
2018-06-06T19:25:59.401Z,24.60
2018-06-06T19:28:27.066Z,24.50
2018-06-06T19:30:54.664Z,24.40
2018-06-06T19:33:22.391Z,24.20
2018-06-06T19:38:17.793Z,23.90
2018-06-06T19:40:45.667Z,23.60
2018-06-06T19:43:13.461Z,23.50
2018-06-06T19:48:08.703Z,23.30
2018-06-06T19:50:36.424Z,23.20
2018-06-06T19:53:04.200Z,23.10
2018-06-06T19:55:31.856Z,23.00
2018-06-06T19:57:59.562Z,22.90
2018-06-06T20:00:27.324Z,22.90
2018-06-06T20:02:55.032Z,23.00
2018-06-06T20:05:22.834Z,22.90
2018-06-06T20:07:50.524Z,22.90
2018-06-06T20:10:18.118Z,22.90
2018-06-06T20:12:45.785Z,22.90
2018-06-06T20:15:13.410Z,22.70
2018-06-06T20:17:41.090Z,22.70
2018-06-06T20:20:08.794Z,22.70
2018-06-06T20:22:36.417Z,22.70
2018-06-06T20:25:04.124Z,22.60
2018-06-06T20:27:31.784Z,22.40
2018-06-06T20:29:59.352Z,22.30
2018-06-06T20:32:27.041Z,22.20
2018-06-06T20:34:54.738Z,22.10
2018-06-06T20:37:22.440Z,22.00
2018-06-06T20:39:50.082Z,22.00
2018-06-06T20:42:17.800Z,22.00
2018-06-06T20:44:45.447Z,22.10
2018-06-06T20:47:13.319Z,22.00
2018-06-06T20:49:40.852Z,21.90
2018-06-06T20:52:08.620Z,21.90
2018-06-06T20:54:36.256Z,21.90
2018-06-06T20:59:31.674Z,22.00
2018-06-06T21:02:00.186Z,22.00
2018-06-06T21:04:27.787Z,22.00
2018-06-06T21:06:55.432Z,21.90
2018-06-06T21:09:22.986Z,21.90
2018-06-06T21:11:50.554Z,21.80
2018-06-06T21:14:18.232Z,21.80
2018-06-06T21:16:45.817Z,21.80
2018-06-06T21:19:13.466Z,21.80
2018-06-06T21:21:41.116Z,21.80
2018-06-06T21:24:08.695Z,21.80
2018-06-06T21:26:36.376Z,21.80
2018-06-06T21:29:04.021Z,21.80
2018-06-06T21:31:31.672Z,21.70
2018-06-06T21:33:59.214Z,21.70
2018-06-06T21:36:26.821Z,21.50
2018-06-06T21:38:54.452Z,21.50
2018-06-06T21:41:22.032Z,21.30
2018-06-06T21:43:49.592Z,21.30
2018-06-06T21:46:17.160Z,21.30
2018-06-06T21:48:44.734Z,21.30
2018-06-06T21:51:12.405Z,21.20
2018-06-06T21:53:40.216Z,21.30
2018-06-06T21:56:07.831Z,21.30
2018-06-06T21:58:35.359Z,21.20
2018-06-06T22:01:03.050Z,21.10
2018-06-06T22:03:30.579Z,21.00
2018-06-06T22:05:58.204Z,21.00
2018-06-06T22:08:25.863Z,21.00
2018-06-06T22:10:53.400Z,21.00
2018-06-06T22:13:20.954Z,21.10
2018-06-06T22:15:48.586Z,21.10
2018-06-06T22:18:16.213Z,21.20
2018-06-06T22:20:43.736Z,21.30
2018-06-06T22:23:11.347Z,21.30
2018-06-06T22:25:38.864Z,21.30
2018-06-06T22:28:06.411Z,21.30
2018-06-06T22:30:33.971Z,21.10
2018-06-06T22:33:01.552Z,21.00
2018-06-06T22:35:29.153Z,20.90
2018-06-06T22:37:56.807Z,20.80
2018-06-06T22:40:24.339Z,20.90
2018-06-06T22:42:51.930Z,20.90
2018-06-06T22:45:19.526Z,21.00
2018-06-06T22:47:47.049Z,21.00
2018-06-06T22:50:14.625Z,21.00
2018-06-06T22:52:42.209Z,20.90
2018-06-06T22:55:09.754Z,20.90
2018-06-06T22:57:37.283Z,20.90
2018-06-06T23:00:05.286Z,20.80
2018-06-06T23:02:32.842Z,20.80
2018-06-06T23:05:00.451Z,20.70
2018-06-06T23:07:28.053Z,20.70
2018-06-06T23:09:55.603Z,20.70
2018-06-06T23:12:23.180Z,20.60
2018-06-06T23:14:50.765Z,20.70
2018-06-06T23:17:18.320Z,20.70
2018-06-06T23:19:45.871Z,20.70
2018-06-06T23:22:13.439Z,20.70
2018-06-06T23:24:41.051Z,20.70
2018-06-06T23:27:08.604Z,20.70
2018-06-06T23:29:36.223Z,20.60
2018-06-06T23:32:03.772Z,20.70
2018-06-06T23:34:31.332Z,20.90
2018-06-06T23:36:58.871Z,20.90
2018-06-06T23:39:26.460Z,20.90
2018-06-06T23:41:54.015Z,20.80
2018-06-06T23:44:21.584Z,20.90
2018-06-06T23:46:49.161Z,20.90
2018-06-06T23:49:16.747Z,20.80
2018-06-06T23:51:44.296Z,20.70
2018-06-06T23:54:11.905Z,20.70
2018-06-06T23:56:39.509Z,20.70
2018-06-06T23:59:07.092Z,20.60
